sensor_id;sensor_type;location;lat;lon;timestamp;P1;durP1;ratioP1;P2;durP2;ratioP2
9370;SDS011;4725;48.384;8.984;2022-10-30T00:00:59;12.17;;;3.43;;
9370;SDS011;4725;48.384;8.984;2022-10-30T00:03:26;14.63;;;3.40;;
9370;SDS011;4725;48.384;8.984;2022-10-30T00:05:54;9.97;;;3.13;;
9370;SDS011;4725;48.384;8.984;2022-10-30T00:08:21;7.90;;;2.80;;
9370;SDS011;4725;48.384;8.984;2022-10-30T00:10:50;8.93;;;3.00;;
9370;SDS011;4725;48.384;8.984;2022-10-30T00:13:18;8.00;;;2.87;;
9370;SDS011;4725;48.384;8.984;2022-10-30T00:15:46;13.83;;;3.30;;
9370;SDS011;4725;48.384;8.984;2022-10-30T00:18:15;11.70;;;3.33;;
9370;SDS011;4725;48.384;8.984;2022-10-30T00:20:42;11.27;;;3.23;;
9370;SDS011;4725;48.384;8.984;2022-10-30T00:23:09;8.77;;;3.53;;
9370;SDS011;4725;48.384;8.984;2022-10-30T00:25:36;11.37;;;3.60;;
9370;SDS011;4725;48.384;8.984;2022-10-30T00:28:04;13.17;;;3.20;;
9370;SDS011;4725;48.384;8.984;2022-10-30T00:30:31;12.30;;;3.00;;
9370;SDS011;4725;48.384;8.984;2022-10-30T00:32:59;14.13;;;3.43;;
9370;SDS011;4725;48.384;8.984;2022-10-30T00:35:27;5.67;;;3.10;;
9370;SDS011;4725;48.384;8.984;2022-10-30T00:37:54;6.45;;;2.55;;
9370;SDS011;4725;48.384;8.984;2022-10-30T00:40:21;7.37;;;3.00;;
9370;SDS011;4725;48.384;8.984;2022-10-30T00:42:49;6.73;;;2.47;;
9370;SDS011;4725;48.384;8.984;2022-10-30T00:45:16;9.37;;;3.50;;
9370;SDS011;4725;48.384;8.984;2022-10-30T00:47:43;9.47;;;3.17;;
9370;SDS011;4725;48.384;8.984;2022-10-30T00:50:16;6.60;;;2.50;;
9370;SDS011;4725;48.384;8.984;2022-10-30T00:52:48;10.27;;;2.97;;
9370;SDS011;4725;48.384;8.984;2022-10-30T00:55:20;9.23;;;3.50;;
9370;SDS011;4725;48.384;8.984;2022-10-30T00:57:51;7.77;;;2.70;;
9370;SDS011;4725;48.384;8.984;2022-10-30T01:00:19;12.23;;;3.23;;
9370;SDS011;4725;48.384;8.984;2022-10-30T01:02:49;8.40;;;3.50;;
9370;SDS011;4725;48.384;8.984;2022-10-30T01:05:17;8.67;;;2.37;;
9370;SDS011;4725;48.384;8.984;2022-10-30T01:07:47;13.57;;;3.33;;
9370;SDS011;4725;48.384;8.984;2022-10-30T01:10:14;17.03;;;3.03;;
9370;SDS011;4725;48.384;8.984;2022-10-30T01:12:42;8.73;;;2.80;;
9370;SDS011;4725;48.384;8.984;2022-10-30T01:15:11;13.03;;;3.23;;
9370;SDS011;4725;48.384;8.984;2022-10-30T01:17:46;8.97;;;2.43;;
9370;SDS011;4725;48.384;8.984;2022-10-30T01:20:38;13.27;;;3.33;;
9370;SDS011;4725;48.384;8.984;2022-10-30T01:23:27;12.17;;;3.40;;
9370;SDS011;4725;48.384;8.984;2022-10-30T01:26:06;4.73;;;2.17;;
9370;SDS011;4725;48.384;8.984;2022-10-30T01:28:42;7.97;;;2.27;;
9370;SDS011;4725;48.384;8.984;2022-10-30T01:31:29;10.87;;;2.53;;
9370;SDS011;4725;48.384;8.984;2022-10-30T01:34:09;6.73;;;2.47;;
9370;SDS011;4725;48.384;8.984;2022-10-30T01:36:45;7.33;;;3.43;;
9370;SDS011;4725;48.384;8.984;2022-10-30T01:39:19;8.63;;;3.10;;
9370;SDS011;4725;48.384;8.984;2022-10-30T01:41:48;11.63;;;3.27;;
9370;SDS011;4725;48.384;8.984;2022-10-30T01:44:16;7.73;;;3.47;;
9370;SDS011;4725;48.384;8.984;2022-10-30T01:46:50;8.80;;;3.13;;
9370;SDS011;4725;48.384;8.984;2022-10-30T01:49:33;7.87;;;2.90;;
9370;SDS011;4725;48.384;8.984;2022-10-30T01:52:21;8.07;;;2.93;;
9370;SDS011;4725;48.384;8.984;2022-10-30T01:55:04;8.67;;;2.77;;
9370;SDS011;4725;48.384;8.984;2022-10-30T01:57:39;10.07;;;2.87;;
9370;SDS011;4725;48.384;8.984;2022-10-30T02:00:13;10.00;;;3.37;;
9370;SDS011;4725;48.384;8.984;2022-10-30T02:02:42;10.00;;;3.40;;
9370;SDS011;4725;48.384;8.984;2022-10-30T02:05:10;7.97;;;3.00;;
9370;SDS011;4725;48.384;8.984;2022-10-30T02:07:42;11.77;;;3.37;;
9370;SDS011;4725;48.384;8.984;2022-10-30T02:10:11;6.13;;;2.67;;
9370;SDS011;4725;48.384;8.984;2022-10-30T02:12:38;7.80;;;3.10;;
9370;SDS011;4725;48.384;8.984;2022-10-30T02:15:06;6.90;;;2.80;;
9370;SDS011;4725;48.384;8.984;2022-10-30T02:17:34;13.03;;;3.47;;
9370;SDS011;4725;48.384;8.984;2022-10-30T02:20:01;15.47;;;2.87;;
9370;SDS011;4725;48.384;8.984;2022-10-30T02:22:30;9.33;;;2.30;;
9370;SDS011;4725;48.384;8.984;2022-10-30T02:24:57;10.33;;;2.97;;
9370;SDS011;4725;48.384;8.984;2022-10-30T02:27:24;16.60;;;2.87;;
9370;SDS011;4725;48.384;8.984;2022-10-30T02:29:51;7.47;;;3.03;;
9370;SDS011;4725;48.384;8.984;2022-10-30T02:32:18;7.83;;;2.73;;
9370;SDS011;4725;48.384;8.984;2022-10-30T02:34:44;8.97;;;3.10;;
9370;SDS011;4725;48.384;8.984;2022-10-30T02:37:11;7.93;;;3.47;;
9370;SDS011;4725;48.384;8.984;2022-10-30T02:39:40;6.13;;;2.70;;
9370;SDS011;4725;48.384;8.984;2022-10-30T02:42:07;8.03;;;3.00;;
9370;SDS011;4725;48.384;8.984;2022-10-30T02:44:34;9.37;;;2.73;;
9370;SDS011;4725;48.384;8.984;2022-10-30T02:47:01;11.13;;;2.87;;
9370;SDS011;4725;48.384;8.984;2022-10-30T02:49:27;7.80;;;2.67;;
9370;SDS011;4725;48.384;8.984;2022-10-30T02:51:54;9.53;;;2.33;;
9370;SDS011;4725;48.384;8.984;2022-10-30T02:54:21;6.30;;;2.63;;
9370;SDS011;4725;48.384;8.984;2022-10-30T02:56:51;8.00;;;2.80;;
9370;SDS011;4725;48.384;8.984;2022-10-30T02:59:18;7.27;;;2.87;;
9370;SDS011;4725;48.384;8.984;2022-10-30T03:01:45;10.93;;;3.40;;
9370;SDS011;4725;48.384;8.984;2022-10-30T03:04:12;11.60;;;2.40;;
9370;SDS011;4725;48.384;8.984;2022-10-30T03:06:39;7.87;;;2.53;;
9370;SDS011;4725;48.384;8.984;2022-10-30T03:09:06;12.67;;;3.27;;
9370;SDS011;4725;48.384;8.984;2022-10-30T03:11:34;10.40;;;2.57;;
9370;SDS011;4725;48.384;8.984;2022-10-30T03:14:02;5.30;;;2.73;;
9370;SDS011;4725;48.384;8.984;2022-10-30T03:16:29;5.57;;;2.60;;
9370;SDS011;4725;48.384;8.984;2022-10-30T03:18:57;7.13;;;2.43;;
9370;SDS011;4725;48.384;8.984;2022-10-30T03:21:25;6.23;;;2.50;;
9370;SDS011;4725;48.384;8.984;2022-10-30T03:23:53;7.73;;;2.53;;
9370;SDS011;4725;48.384;8.984;2022-10-30T03:26:21;18.00;;;3.50;;
9370;SDS011;4725;48.384;8.984;2022-10-30T03:28:48;10.57;;;2.47;;
9370;SDS011;4725;48.384;8.984;2022-10-30T03:31:17;7.23;;;2.83;;
9370;SDS011;4725;48.384;8.984;2022-10-30T03:33:44;5.97;;;2.10;;
9370;SDS011;4725;48.384;8.984;2022-10-30T03:36:12;7.93;;;2.80;;
9370;SDS011;4725;48.384;8.984;2022-10-30T03:38:40;7.30;;;2.60;;
9370;SDS011;4725;48.384;8.984;2022-10-30T03:41:08;8.57;;;2.67;;
9370;SDS011;4725;48.384;8.984;2022-10-30T03:43:35;5.83;;;2.30;;
9370;SDS011;4725;48.384;8.984;2022-10-30T03:46:02;8.63;;;2.30;;
9370;SDS011;4725;48.384;8.984;2022-10-30T03:48:30;5.70;;;2.47;;
9370;SDS011;4725;48.384;8.984;2022-10-30T03:50:58;8.60;;;2.53;;
9370;SDS011;4725;48.384;8.984;2022-10-30T03:53:25;12.43;;;2.73;;
9370;SDS011;4725;48.384;8.984;2022-10-30T03:55:56;6.87;;;2.47;;
9370;SDS011;4725;48.384;8.984;2022-10-30T03:58:24;7.17;;;2.40;;
9370;SDS011;4725;48.384;8.984;2022-10-30T04:00:51;17.60;;;2.90;;
9370;SDS011;4725;48.384;8.984;2022-10-30T04:03:18;6.87;;;2.40;;
9370;SDS011;4725;48.384;8.984;2022-10-30T04:05:47;7.73;;;2.13;;
9370;SDS011;4725;48.384;8.984;2022-10-30T04:08:15;4.13;;;2.43;;
9370;SDS011;4725;48.384;8.984;2022-10-30T04:10:43;6.73;;;2.27;;
9370;SDS011;4725;48.384;8.984;2022-10-30T04:13:11;11.93;;;3.20;;
9370;SDS011;4725;48.384;8.984;2022-10-30T04:15:40;4.77;;;2.37;;
9370;SDS011;4725;48.384;8.984;2022-10-30T04:18:08;10.13;;;2.83;;
9370;SDS011;4725;48.384;8.984;2022-10-30T04:20:36;12.97;;;2.77;;
9370;SDS011;4725;48.384;8.984;2022-10-30T04:23:05;6.60;;;2.40;;
9370;SDS011;4725;48.384;8.984;2022-10-30T04:25:33;12.30;;;2.70;;
9370;SDS011;4725;48.384;8.984;2022-10-30T04:28:01;7.23;;;2.30;;
9370;SDS011;4725;48.384;8.984;2022-10-30T04:30:29;13.63;;;2.67;;
9370;SDS011;4725;48.384;8.984;2022-10-30T04:32:59;10.13;;;3.97;;
9370;SDS011;4725;48.384;8.984;2022-10-30T04:35:28;12.23;;;3.27;;
9370;SDS011;4725;48.384;8.984;2022-10-30T04:37:58;14.43;;;2.97;;
9370;SDS011;4725;48.384;8.984;2022-10-30T04:40:28;7.87;;;3.20;;
9370;SDS011;4725;48.384;8.984;2022-10-30T04:42:56;11.60;;;2.67;;
9370;SDS011;4725;48.384;8.984;2022-10-30T04:45:23;7.93;;;2.40;;
9370;SDS011;4725;48.384;8.984;2022-10-30T04:47:50;7.13;;;2.90;;
9370;SDS011;4725;48.384;8.984;2022-10-30T04:50:17;9.60;;;3.17;;
9370;SDS011;4725;48.384;8.984;2022-10-30T04:52:44;7.17;;;2.57;;
9370;SDS011;4725;48.384;8.984;2022-10-30T04:55:11;8.93;;;2.53;;
9370;SDS011;4725;48.384;8.984;2022-10-30T04:57:40;9.97;;;2.67;;
9370;SDS011;4725;48.384;8.984;2022-10-30T05:00:07;5.77;;;3.00;;
9370;SDS011;4725;48.384;8.984;2022-10-30T05:02:36;9.03;;;3.17;;
9370;SDS011;4725;48.384;8.984;2022-10-30T05:05:03;11.43;;;2.90;;
9370;SDS011;4725;48.384;8.984;2022-10-30T05:07:30;8.47;;;2.30;;
9370;SDS011;4725;48.384;8.984;2022-10-30T05:09:57;4.83;;;2.07;;
9370;SDS011;4725;48.384;8.984;2022-10-30T05:12:24;10.43;;;2.30;;
9370;SDS011;4725;48.384;8.984;2022-10-30T05:14:52;7.27;;;2.07;;
9370;SDS011;4725;48.384;8.984;2022-10-30T05:17:19;11.80;;;2.33;;
9370;SDS011;4725;48.384;8.984;2022-10-30T05:19:46;8.90;;;1.97;;
9370;SDS011;4725;48.384;8.984;2022-10-30T05:22:13;9.23;;;2.60;;
9370;SDS011;4725;48.384;8.984;2022-10-30T05:24:41;7.50;;;2.83;;
9370;SDS011;4725;48.384;8.984;2022-10-30T05:27:07;3.07;;;1.70;;
9370;SDS011;4725;48.384;8.984;2022-10-30T05:29:34;7.33;;;2.30;;
9370;SDS011;4725;48.384;8.984;2022-10-30T05:32:03;6.03;;;2.33;;
9370;SDS011;4725;48.384;8.984;2022-10-30T05:34:30;7.53;;;2.50;;
9370;SDS011;4725;48.384;8.984;2022-10-30T05:36:57;8.10;;;2.10;;
9370;SDS011;4725;48.384;8.984;2022-10-30T05:39:25;8.60;;;2.10;;
9370;SDS011;4725;48.384;8.984;2022-10-30T05:41:52;6.10;;;2.40;;
9370;SDS011;4725;48.384;8.984;2022-10-30T05:44:19;8.87;;;3.43;;
9370;SDS011;4725;48.384;8.984;2022-10-30T05:46:46;10.37;;;2.43;;
9370;SDS011;4725;48.384;8.984;2022-10-30T05:49:14;8.27;;;1.73;;
9370;SDS011;4725;48.384;8.984;2022-10-30T05:51:42;3.37;;;1.87;;
9370;SDS011;4725;48.384;8.984;2022-10-30T05:54:09;6.17;;;2.17;;
9370;SDS011;4725;48.384;8.984;2022-10-30T05:56:36;2.10;;;1.30;;
9370;SDS011;4725;48.384;8.984;2022-10-30T05:59:03;6.00;;;1.83;;
9370;SDS011;4725;48.384;8.984;2022-10-30T06:01:30;10.87;;;1.87;;
9370;SDS011;4725;48.384;8.984;2022-10-30T06:03:57;5.30;;;2.27;;
9370;SDS011;4725;48.384;8.984;2022-10-30T06:06:25;6.33;;;1.93;;
9370;SDS011;4725;48.384;8.984;2022-10-30T06:08:52;4.90;;;1.93;;
9370;SDS011;4725;48.384;8.984;2022-10-30T06:11:19;3.03;;;1.70;;
9370;SDS011;4725;48.384;8.984;2022-10-30T06:13:46;3.80;;;1.80;;
9370;SDS011;4725;48.384;8.984;2022-10-30T06:16:14;4.73;;;1.43;;
9370;SDS011;4725;48.384;8.984;2022-10-30T06:18:41;5.97;;;1.50;;
9370;SDS011;4725;48.384;8.984;2022-10-30T06:21:08;3.43;;;1.73;;
9370;SDS011;4725;48.384;8.984;2022-10-30T06:23:36;3.87;;;1.40;;
9370;SDS011;4725;48.384;8.984;2022-10-30T06:26:03;5.27;;;1.77;;
9370;SDS011;4725;48.384;8.984;2022-10-30T06:28:30;3.70;;;1.90;;
9370;SDS011;4725;48.384;8.984;2022-10-30T06:30:57;4.23;;;1.50;;
9370;SDS011;4725;48.384;8.984;2022-10-30T06:33:24;4.77;;;1.30;;
9370;SDS011;4725;48.384;8.984;2022-10-30T06:35:51;5.57;;;2.10;;
9370;SDS011;4725;48.384;8.984;2022-10-30T06:38:18;5.27;;;1.60;;
9370;SDS011;4725;48.384;8.984;2022-10-30T06:40:46;3.73;;;1.67;;
9370;SDS011;4725;48.384;8.984;2022-10-30T06:43:13;7.07;;;2.43;;
9370;SDS011;4725;48.384;8.984;2022-10-30T06:45:40;8.93;;;2.07;;
9370;SDS011;4725;48.384;8.984;2022-10-30T06:48:07;4.20;;;2.03;;
9370;SDS011;4725;48.384;8.984;2022-10-30T06:50:34;4.97;;;1.60;;
9370;SDS011;4725;48.384;8.984;2022-10-30T06:53:01;2.73;;;1.63;;
9370;SDS011;4725;48.384;8.984;2022-10-30T06:55:28;6.43;;;2.00;;
9370;SDS011;4725;48.384;8.984;2022-10-30T06:57:57;3.40;;;1.50;;
9370;SDS011;4725;48.384;8.984;2022-10-30T07:00:24;3.13;;;1.70;;
9370;SDS011;4725;48.384;8.984;2022-10-30T07:02:55;7.30;;;2.63;;
9370;SDS011;4725;48.384;8.984;2022-10-30T07:05:22;5.87;;;1.93;;
9370;SDS011;4725;48.384;8.984;2022-10-30T07:07:50;3.10;;;1.60;;
9370;SDS011;4725;48.384;8.984;2022-10-30T07:10:17;4.60;;;2.10;;
9370;SDS011;4725;48.384;8.984;2022-10-30T07:12:49;5.20;;;1.60;;
9370;SDS011;4725;48.384;8.984;2022-10-30T07:15:19;5.47;;;2.10;;
9370;SDS011;4725;48.384;8.984;2022-10-30T07:17:55;10.03;;;2.10;;
9370;SDS011;4725;48.384;8.984;2022-10-30T07:20:23;7.83;;;2.57;;
9370;SDS011;4725;48.384;8.984;2022-10-30T07:22:51;4.37;;;1.50;;
9370;SDS011;4725;48.384;8.984;2022-10-30T07:25:18;2.53;;;1.57;;
9370;SDS011;4725;48.384;8.984;2022-10-30T07:27:46;5.73;;;1.80;;
9370;SDS011;4725;48.384;8.984;2022-10-30T07:30:14;4.63;;;1.70;;
9370;SDS011;4725;48.384;8.984;2022-10-30T07:32:43;3.60;;;1.93;;
9370;SDS011;4725;48.384;8.984;2022-10-30T07:35:11;7.07;;;1.80;;
9370;SDS011;4725;48.384;8.984;2022-10-30T07:37:39;4.37;;;2.20;;
9370;SDS011;4725;48.384;8.984;2022-10-30T07:40:06;7.40;;;2.72;;
9370;SDS011;4725;48.384;8.984;2022-10-30T07:42:34;4.63;;;2.13;;
9370;SDS011;4725;48.384;8.984;2022-10-30T07:45:01;7.17;;;2.60;;
9370;SDS011;4725;48.384;8.984;2022-10-30T07:47:28;5.60;;;1.83;;
9370;SDS011;4725;48.384;8.984;2022-10-30T07:49:56;6.00;;;1.80;;
9370;SDS011;4725;48.384;8.984;2022-10-30T07:52:23;4.27;;;1.90;;
9370;SDS011;4725;48.384;8.984;2022-10-30T07:54:50;5.78;;;2.03;;
9370;SDS011;4725;48.384;8.984;2022-10-30T07:57:17;5.88;;;1.77;;
9370;SDS011;4725;48.384;8.984;2022-10-30T07:59:44;7.43;;;1.98;;
9370;SDS011;4725;48.384;8.984;2022-10-30T08:02:11;6.47;;;2.67;;
9370;SDS011;4725;48.384;8.984;2022-10-30T08:04:38;9.87;;;2.00;;
9370;SDS011;4725;48.384;8.984;2022-10-30T08:07:06;5.60;;;2.20;;
9370;SDS011;4725;48.384;8.984;2022-10-30T08:09:33;4.60;;;1.67;;
9370;SDS011;4725;48.384;8.984;2022-10-30T08:12:00;8.93;;;3.17;;
9370;SDS011;4725;48.384;8.984;2022-10-30T08:14:27;4.35;;;1.80;;
9370;SDS011;4725;48.384;8.984;2022-10-30T08:16:54;3.70;;;2.10;;
9370;SDS011;4725;48.384;8.984;2022-10-30T08:19:21;4.20;;;1.90;;
9370;SDS011;4725;48.384;8.984;2022-10-30T08:21:48;4.15;;;2.20;;
9370;SDS011;4725;48.384;8.984;2022-10-30T08:24:17;9.95;;;2.00;;
9370;SDS011;4725;48.384;8.984;2022-10-30T08:26:44;4.57;;;2.15;;
9370;SDS011;4725;48.384;8.984;2022-10-30T08:29:11;4.30;;;2.13;;
9370;SDS011;4725;48.384;8.984;2022-10-30T08:31:37;5.65;;;2.42;;
9370;SDS011;4725;48.384;8.984;2022-10-30T08:34:04;6.28;;;1.95;;
9370;SDS011;4725;48.384;8.984;2022-10-30T08:36:31;6.65;;;2.17;;
9370;SDS011;4725;48.384;8.984;2022-10-30T08:38:58;7.20;;;2.10;;
9370;SDS011;4725;48.384;8.984;2022-10-30T08:41:29;4.68;;;2.03;;
9370;SDS011;4725;48.384;8.984;2022-10-30T08:43:56;4.18;;;1.88;;
9370;SDS011;4725;48.384;8.984;2022-10-30T08:46:23;3.58;;;1.55;;
9370;SDS011;4725;48.384;8.984;2022-10-30T08:48:50;5.75;;;1.92;;
9370;SDS011;4725;48.384;8.984;2022-10-30T08:51:19;4.70;;;1.83;;
9370;SDS011;4725;48.384;8.984;2022-10-30T08:53:46;4.85;;;2.60;;
9370;SDS011;4725;48.384;8.984;2022-10-30T08:56:14;4.43;;;1.63;;
9370;SDS011;4725;48.384;8.984;2022-10-30T08:58:42;4.70;;;1.95;;
9370;SDS011;4725;48.384;8.984;2022-10-30T09:01:09;5.15;;;1.63;;
9370;SDS011;4725;48.384;8.984;2022-10-30T09:03:36;4.80;;;1.83;;
9370;SDS011;4725;48.384;8.984;2022-10-30T09:06:03;7.18;;;2.17;;
9370;SDS011;4725;48.384;8.984;2022-10-30T09:08:31;7.38;;;1.85;;
9370;SDS011;4725;48.384;8.984;2022-10-30T09:10:58;5.35;;;1.88;;
9370;SDS011;4725;48.384;8.984;2022-10-30T09:13:25;7.55;;;2.08;;
9370;SDS011;4725;48.384;8.984;2022-10-30T09:15:53;4.25;;;1.85;;
9370;SDS011;4725;48.384;8.984;2022-10-30T09:18:24;3.65;;;1.92;;
9370;SDS011;4725;48.384;8.984;2022-10-30T09:20:51;4.97;;;2.50;;
9370;SDS011;4725;48.384;8.984;2022-10-30T09:23:18;5.13;;;2.13;;
9370;SDS011;4725;48.384;8.984;2022-10-30T09:25:45;3.90;;;2.45;;
9370;SDS011;4725;48.384;8.984;2022-10-30T09:28:12;5.85;;;2.25;;
9370;SDS011;4725;48.384;8.984;2022-10-30T09:30:40;5.90;;;2.67;;
9370;SDS011;4725;48.384;8.984;2022-10-30T09:33:08;3.42;;;2.45;;
9370;SDS011;4725;48.384;8.984;2022-10-30T09:35:35;3.38;;;2.30;;
9370;SDS011;4725;48.384;8.984;2022-10-30T09:38:02;3.03;;;2.25;;
9370;SDS011;4725;48.384;8.984;2022-10-30T09:40:33;3.55;;;2.20;;
9370;SDS011;4725;48.384;8.984;2022-10-30T09:43:13;6.28;;;2.08;;
9370;SDS011;4725;48.384;8.984;2022-10-30T09:46:01;2.58;;;1.98;;
9370;SDS011;4725;48.384;8.984;2022-10-30T09:48:57;5.40;;;2.10;;
9370;SDS011;4725;48.384;8.984;2022-10-30T09:54:55;5.30;;;2.33;;
9370;SDS011;4725;48.384;8.984;2022-10-30T09:57:32;8.93;;;2.40;;
9370;SDS011;4725;48.384;8.984;2022-10-30T10:00:07;3.45;;;2.25;;
9370;SDS011;4725;48.384;8.984;2022-10-30T10:02:37;6.13;;;2.28;;
9370;SDS011;4725;48.384;8.984;2022-10-30T10:05:16;5.57;;;2.33;;
9370;SDS011;4725;48.384;8.984;2022-10-30T10:07:48;6.38;;;2.35;;
9370;SDS011;4725;48.384;8.984;2022-10-30T10:10:19;3.70;;;1.88;;
9370;SDS011;4725;48.384;8.984;2022-10-30T10:13:01;3.58;;;2.13;;
9370;SDS011;4725;48.384;8.984;2022-10-30T10:15:32;5.00;;;2.63;;
9370;SDS011;4725;48.384;8.984;2022-10-30T10:18:05;4.03;;;2.63;;
9370;SDS011;4725;48.384;8.984;2022-10-30T10:20:43;4.25;;;2.10;;
9370;SDS011;4725;48.384;8.984;2022-10-30T10:23:15;5.60;;;2.28;;
9370;SDS011;4725;48.384;8.984;2022-10-30T10:25:52;5.57;;;2.10;;
9370;SDS011;4725;48.384;8.984;2022-10-30T10:28:24;5.28;;;2.63;;
9370;SDS011;4725;48.384;8.984;2022-10-30T10:31:09;3.13;;;2.33;;
9370;SDS011;4725;48.384;8.984;2022-10-30T10:33:49;4.78;;;2.33;;
9370;SDS011;4725;48.384;8.984;2022-10-30T10:36:29;7.32;;;2.78;;
9370;SDS011;4725;48.384;8.984;2022-10-30T10:39:14;4.40;;;2.35;;
9370;SDS011;4725;48.384;8.984;2022-10-30T10:41:52;5.45;;;2.00;;
9370;SDS011;4725;48.384;8.984;2022-10-30T10:44:30;5.40;;;2.40;;
9370;SDS011;4725;48.384;8.984;2022-10-30T10:47:08;5.72;;;2.55;;
9370;SDS011;4725;48.384;8.984;2022-10-30T10:50:14;6.10;;;2.47;;
9370;SDS011;4725;48.384;8.984;2022-10-30T10:52:50;6.03;;;2.17;;
9370;SDS011;4725;48.384;8.984;2022-10-30T10:55:22;3.50;;;2.10;;
9370;SDS011;4725;48.384;8.984;2022-10-30T10:57:53;2.58;;;2.03;;
9370;SDS011;4725;48.384;8.984;2022-10-30T11:00:23;5.18;;;2.47;;
9370;SDS011;4725;48.384;8.984;2022-10-30T11:02:54;4.88;;;2.47;;
9370;SDS011;4725;48.384;8.984;2022-10-30T11:05:30;3.53;;;2.53;;
9370;SDS011;4725;48.384;8.984;2022-10-30T11:08:03;2.88;;;2.03;;
9370;SDS011;4725;48.384;8.984;2022-10-30T11:10:37;3.85;;;2.28;;
9370;SDS011;4725;48.384;8.984;2022-10-30T11:13:04;4.22;;;1.80;;
9370;SDS011;4725;48.384;8.984;2022-10-30T11:15:37;5.95;;;2.58;;
9370;SDS011;4725;48.384;8.984;2022-10-30T11:18:11;5.82;;;2.28;;
9370;SDS011;4725;48.384;8.984;2022-10-30T11:20:41;2.33;;;2.10;;
9370;SDS011;4725;48.384;8.984;2022-10-30T11:23:31;5.07;;;2.40;;
9370;SDS011;4725;48.384;8.984;2022-10-30T11:26:00;5.63;;;1.90;;
9370;SDS011;4725;48.384;8.984;2022-10-30T11:28:34;4.03;;;2.30;;
9370;SDS011;4725;48.384;8.984;2022-10-30T11:31:19;3.92;;;1.95;;
9370;SDS011;4725;48.384;8.984;2022-10-30T11:33:48;3.85;;;1.92;;
9370;SDS011;4725;48.384;8.984;2022-10-30T11:36:16;4.88;;;2.38;;
9370;SDS011;4725;48.384;8.984;2022-10-30T11:38:48;4.25;;;2.03;;
9370;SDS011;4725;48.384;8.984;2022-10-30T11:41:15;2.00;;;1.80;;
9370;SDS011;4725;48.384;8.984;2022-10-30T11:43:42;5.85;;;2.30;;
9370;SDS011;4725;48.384;8.984;2022-10-30T11:46:10;4.88;;;1.83;;
9370;SDS011;4725;48.384;8.984;2022-10-30T11:48:46;8.98;;;2.22;;
9370;SDS011;4725;48.384;8.984;2022-10-30T11:51:27;3.83;;;1.63;;
9370;SDS011;4725;48.384;8.984;2022-10-30T11:53:59;9.50;;;2.38;;
9370;SDS011;4725;48.384;8.984;2022-10-30T11:56:27;3.42;;;1.92;;
9370;SDS011;4725;48.384;8.984;2022-10-30T11:58:57;5.57;;;2.40;;
9370;SDS011;4725;48.384;8.984;2022-10-30T12:01:26;6.60;;;2.40;;
9370;SDS011;4725;48.384;8.984;2022-10-30T12:03:55;5.35;;;2.10;;
9370;SDS011;4725;48.384;8.984;2022-10-30T12:06:37;3.83;;;2.03;;
9370;SDS011;4725;48.384;8.984;2022-10-30T12:09:09;4.28;;;2.47;;
9370;SDS011;4725;48.384;8.984;2022-10-30T12:11:38;5.20;;;1.70;;
9370;SDS011;4725;48.384;8.984;2022-10-30T12:14:12;4.15;;;2.20;;
9370;SDS011;4725;48.384;8.984;2022-10-30T12:16:44;4.28;;;2.13;;
9370;SDS011;4725;48.384;8.984;2022-10-30T12:19:13;3.60;;;2.30;;
9370;SDS011;4725;48.384;8.984;2022-10-30T12:21:42;4.60;;;2.63;;
9370;SDS011;4725;48.384;8.984;2022-10-30T12:24:15;5.95;;;2.58;;
9370;SDS011;4725;48.384;8.984;2022-10-30T12:26:45;7.65;;;2.50;;
9370;SDS011;4725;48.384;8.984;2022-10-30T12:29:14;4.72;;;2.67;;
9370;SDS011;4725;48.384;8.984;2022-10-30T12:31:45;4.10;;;2.20;;
9370;SDS011;4725;48.384;8.984;2022-10-30T12:34:24;7.05;;;2.55;;
9370;SDS011;4725;48.384;8.984;2022-10-30T12:36:59;7.07;;;3.20;;
9370;SDS011;4725;48.384;8.984;2022-10-30T12:39:38;4.93;;;2.72;;
9370;SDS011;4725;48.384;8.984;2022-10-30T12:42:13;4.68;;;2.35;;
9370;SDS011;4725;48.384;8.984;2022-10-30T12:44:42;5.25;;;2.35;;
9370;SDS011;4725;48.384;8.984;2022-10-30T12:47:12;3.85;;;2.08;;
9370;SDS011;4725;48.384;8.984;2022-10-30T12:49:45;2.83;;;1.75;;
9370;SDS011;4725;48.384;8.984;2022-10-30T12:52:16;4.57;;;2.17;;
9370;SDS011;4725;48.384;8.984;2022-10-30T12:54:49;4.13;;;2.45;;
9370;SDS011;4725;48.384;8.984;2022-10-30T12:57:21;5.75;;;2.30;;
9370;SDS011;4725;48.384;8.984;2022-10-30T12:59:54;3.10;;;2.03;;
9370;SDS011;4725;48.384;8.984;2022-10-30T13:02:28;4.13;;;1.73;;
9370;SDS011;4725;48.384;8.984;2022-10-30T13:05:04;2.80;;;2.20;;
9370;SDS011;4725;48.384;8.984;2022-10-30T13:07:40;6.32;;;2.50;;
9370;SDS011;4725;48.384;8.984;2022-10-30T13:10:21;8.57;;;2.50;;
9370;SDS011;4725;48.384;8.984;2022-10-30T13:12:55;7.88;;;2.38;;
9370;SDS011;4725;48.384;8.984;2022-10-30T13:15:27;4.15;;;2.20;;
9370;SDS011;4725;48.384;8.984;2022-10-30T13:17:56;6.20;;;2.55;;
9370;SDS011;4725;48.384;8.984;2022-10-30T13:20:24;4.13;;;2.10;;
9370;SDS011;4725;48.384;8.984;2022-10-30T13:22:54;6.75;;;2.45;;
9370;SDS011;4725;48.384;8.984;2022-10-30T13:25:28;5.10;;;2.88;;
9370;SDS011;4725;48.384;8.984;2022-10-30T13:28:01;6.07;;;2.78;;
9370;SDS011;4725;48.384;8.984;2022-10-30T13:30:33;5.07;;;2.40;;
9370;SDS011;4725;48.384;8.984;2022-10-30T13:33:07;7.10;;;3.05;;
9370;SDS011;4725;48.384;8.984;2022-10-30T13:35:40;6.50;;;2.50;;
9370;SDS011;4725;48.384;8.984;2022-10-30T13:38:21;4.18;;;2.42;;
9370;SDS011;4725;48.384;8.984;2022-10-30T13:41:02;8.82;;;2.85;;
9370;SDS011;4725;48.384;8.984;2022-10-30T13:43:36;5.55;;;2.75;;
9370;SDS011;4725;48.384;8.984;2022-10-30T13:46:16;5.22;;;2.53;;
9370;SDS011;4725;48.384;8.984;2022-10-30T13:48:56;8.32;;;3.35;;
9370;SDS011;4725;48.384;8.984;2022-10-30T13:51:36;7.30;;;2.72;;
9370;SDS011;4725;48.384;8.984;2022-10-30T13:54:12;5.00;;;2.70;;
9370;SDS011;4725;48.384;8.984;2022-10-30T13:56:46;2.75;;;2.00;;
9370;SDS011;4725;48.384;8.984;2022-10-30T13:59:18;6.10;;;2.72;;
9370;SDS011;4725;48.384;8.984;2022-10-30T14:02:07;6.47;;;2.47;;
9370;SDS011;4725;48.384;8.984;2022-10-30T14:04:45;6.10;;;3.40;;
9370;SDS011;4725;48.384;8.984;2022-10-30T14:07:20;7.05;;;2.65;;
9370;SDS011;4725;48.384;8.984;2022-10-30T14:09:55;6.28;;;2.83;;
9370;SDS011;4725;48.384;8.984;2022-10-30T14:15:17;5.72;;;2.70;;
9370;SDS011;4725;48.384;8.984;2022-10-30T14:20:50;6.32;;;2.53;;
9370;SDS011;4725;48.384;8.984;2022-10-30T14:23:19;3.63;;;2.72;;
9370;SDS011;4725;48.384;8.984;2022-10-30T14:28:39;5.25;;;3.05;;
9370;SDS011;4725;48.384;8.984;2022-10-30T14:31:09;4.95;;;2.47;;
9370;SDS011;4725;48.384;8.984;2022-10-30T14:33:44;4.50;;;2.97;;
9370;SDS011;4725;48.384;8.984;2022-10-30T14:36:20;5.00;;;2.58;;
9370;SDS011;4725;48.384;8.984;2022-10-30T14:38:58;4.65;;;2.42;;
9370;SDS011;4725;48.384;8.984;2022-10-30T14:50:14;6.43;;;3.58;;
9370;SDS011;4725;48.384;8.984;2022-10-30T14:52:52;11.48;;;3.67;;
9370;SDS011;4725;48.384;8.984;2022-10-30T14:55:31;6.18;;;3.28;;
9370;SDS011;4725;48.384;8.984;2022-10-30T14:58:13;7.10;;;2.97;;
9370;SDS011;4725;48.384;8.984;2022-10-30T15:00:44;6.22;;;2.67;;
9370;SDS011;4725;48.384;8.984;2022-10-30T15:03:16;6.90;;;2.78;;
9370;SDS011;4725;48.384;8.984;2022-10-30T15:06:02;3.08;;;2.22;;
9370;SDS011;4725;48.384;8.984;2022-10-30T15:08:47;4.80;;;2.53;;
9370;SDS011;4725;48.384;8.984;2022-10-30T15:11:34;4.53;;;2.78;;
9370;SDS011;4725;48.384;8.984;2022-10-30T15:14:14;6.38;;;2.75;;
9370;SDS011;4725;48.384;8.984;2022-10-30T15:16:49;6.32;;;2.53;;
9370;SDS011;4725;48.384;8.984;2022-10-30T15:19:17;5.85;;;2.90;;
9370;SDS011;4725;48.384;8.984;2022-10-30T15:21:48;10.82;;;2.30;;
9370;SDS011;4725;48.384;8.984;2022-10-30T15:24:18;8.07;;;2.72;;
9370;SDS011;4725;48.384;8.984;2022-10-30T15:26:48;9.63;;;2.83;;
9370;SDS011;4725;48.384;8.984;2022-10-30T15:29:16;12.45;;;2.75;;
9370;SDS011;4725;48.384;8.984;2022-10-30T15:31:56;5.20;;;2.78;;
9370;SDS011;4725;48.384;8.984;2022-10-30T15:34:25;5.55;;;2.25;;
9370;SDS011;4725;48.384;8.984;2022-10-30T15:36:53;8.23;;;2.47;;
9370;SDS011;4725;48.384;8.984;2022-10-30T15:39:20;4.65;;;2.38;;
9370;SDS011;4725;48.384;8.984;2022-10-30T15:41:47;6.45;;;2.15;;
9370;SDS011;4725;48.384;8.984;2022-10-30T15:44:18;5.70;;;3.05;;
9370;SDS011;4725;48.384;8.984;2022-10-30T15:46:48;7.55;;;2.30;;
9370;SDS011;4725;48.384;8.984;2022-10-30T15:49:19;8.55;;;2.90;;
9370;SDS011;4725;48.384;8.984;2022-10-30T15:51:54;5.35;;;2.42;;
9370;SDS011;4725;48.384;8.984;2022-10-30T15:54:21;5.35;;;2.45;;